<?xml version="1.0" encoding="UTF-8" standalone="no" ?><gpx xmlns="http://www.topografix.com/GPX/1/1" xmlns:gpxx="http://www.garmin.com/xmlschemas/GpxExtensions/v3" xmlns:wptx1="http://www.garmin.com/xmlschemas/WaypointExtension/v1" xmlns:gpxtpx="http://www.garmin.com/xmlschemas/TrackPointExtension/v1" creator="GuideVTT.com" version="1.1" xmlns:xsi="http://www.w3.org/2001/XMLSchema-instance" xsi:schemaLocation="http://www.topografix.com/GPX/1/1 http://www.topografix.com/GPX/1/1/gpx.xsd http://www.garmin.com/xmlschemas/GpxExtensions/v3 http://www8.garmin.com/xmlschemas/GpxExtensionsv3.xsd http://www.garmin.com/xmlschemas/WaypointExtension/v1 http://www8.garmin.com/xmlschemas/WaypointExtensionv1.xsd http://www.garmin.com/xmlschemas/TrackPointExtension/v1 http://www.garmin.com/xmlschemas/TrackPointExtensionv1.xsd">
<metadata><link href="http://www.garmin.com"><text>Garmin International</text></link><time>2013-06-22T15:13:50Z</time></metadata>
<trk><name>rp_vtt_2012_27.gpx</name><extensions><gpxx:TrackExtension><gpxx:DisplayColor>Cyan</gpxx:DisplayColor></gpxx:TrackExtension></extensions><trkseg>
<trkpt lat="46.599862576" lon="6.375331879"><ele></ele><time>2013-8-24T3:22:52Z</time></trkpt>
<trkpt lat="46.599841118" lon="6.375460625"><ele></ele><time>2013-8-24T3:22:55Z</time></trkpt>
<trkpt lat="46.599841118" lon="6.375396252"><ele></ele><time>2013-8-24T3:22:58Z</time></trkpt>
<trkpt lat="46.599776745" lon="6.375374794"><ele></ele><time>2013-8-24T3:23:1Z</time></trkpt>
<trkpt lat="46.599798203" lon="6.375997066"><ele></ele><time>2013-8-24T3:23:4Z</time></trkpt>
<trkpt lat="46.599926949" lon="6.376297474"><ele></ele><time>2013-8-24T3:23:7Z</time></trkpt>
<trkpt lat="46.600184441" lon="6.376533508"><ele></ele><time>2013-8-24T3:23:10Z</time></trkpt>
<trkpt lat="46.600334644" lon="6.376597881"><ele></ele><time>2013-8-24T3:23:13Z</time></trkpt>
<trkpt lat="46.600441933" lon="6.376597881"><ele></ele><time>2013-8-24T3:23:16Z</time></trkpt>
<trkpt lat="46.600699425" lon="6.376876831"><ele></ele><time>2013-8-24T3:23:19Z</time></trkpt>
<trkpt lat="46.600592136" lon="6.376855373"><ele></ele><time>2013-8-24T3:23:22Z</time></trkpt>
<trkpt lat="46.600742340" lon="6.376962662"><ele></ele><time>2013-8-24T3:23:25Z</time></trkpt>
<trkpt lat="46.601150036" lon="6.377134323"><ele></ele><time>2013-8-24T3:23:28Z</time></trkpt>
<trkpt lat="46.601364613" lon="6.377069950"><ele></ele><time>2013-8-24T3:23:31Z</time></trkpt>
<trkpt lat="46.601622105" lon="6.376662254"><ele></ele><time>2013-8-24T3:23:34Z</time></trkpt>
<trkpt lat="46.601729393" lon="6.375997066"><ele></ele><time>2013-8-24T3:23:37Z</time></trkpt>
<trkpt lat="46.601772308" lon="6.374924183"><ele></ele><time>2013-8-24T3:23:40Z</time></trkpt>
<trkpt lat="46.601879597" lon="6.374580860"><ele></ele><time>2013-8-24T3:23:43Z</time></trkpt>
<trkpt lat="46.602094173" lon="6.374108791"><ele></ele><time>2013-8-24T3:23:46Z</time></trkpt>
<trkpt lat="46.602051258" lon="6.373529434"><ele></ele><time>2013-8-24T3:23:49Z</time></trkpt>
<trkpt lat="46.601986885" lon="6.373379230"><ele></ele><time>2013-8-24T3:23:52Z</time></trkpt>
<trkpt lat="46.601901054" lon="6.373271942"><ele></ele><time>2013-8-24T3:23:55Z</time></trkpt>
<trkpt lat="46.601064205" lon="6.372692585"><ele></ele><time>2013-8-24T3:23:58Z</time></trkpt>
<trkpt lat="46.601042747" lon="6.372327805"><ele></ele><time>2013-8-24T3:24:1Z</time></trkpt>
<trkpt lat="46.601278782" lon="6.371490955"><ele></ele><time>2013-8-24T3:24:4Z</time></trkpt>
<trkpt lat="46.601343155" lon="6.370890141"><ele></ele><time>2013-8-24T3:24:7Z</time></trkpt>
<trkpt lat="46.601257324" lon="6.370611191"><ele></ele><time>2013-8-24T3:24:10Z</time></trkpt>
<trkpt lat="46.601192951" lon="6.369581223"><ele></ele><time>2013-8-24T3:24:13Z</time></trkpt>
<trkpt lat="46.600978374" lon="6.368916035"><ele></ele><time>2013-8-24T3:24:16Z</time></trkpt>
<trkpt lat="46.600592136" lon="6.368229389"><ele></ele><time>2013-8-24T3:24:19Z</time></trkpt>
<trkpt lat="46.600635052" lon="6.367692947"><ele></ele><time>2013-8-24T3:24:22Z</time></trkpt>
<trkpt lat="46.600763798" lon="6.367371082"><ele></ele><time>2013-8-24T3:24:25Z</time></trkpt>
<trkpt lat="46.601150036" lon="6.366748810"><ele></ele><time>2013-8-24T3:24:28Z</time></trkpt>
<trkpt lat="46.601235867" lon="6.365933418"><ele></ele><time>2013-8-24T3:24:31Z</time></trkpt>
<trkpt lat="46.601343155" lon="6.365847588"><ele></ele><time>2013-8-24T3:24:34Z</time></trkpt>
<trkpt lat="46.601729393" lon="6.366212368"><ele></ele><time>2013-8-24T3:24:37Z</time></trkpt>
<trkpt lat="46.601836681" lon="6.366362572"><ele></ele><time>2013-8-24T3:24:40Z</time></trkpt>
<trkpt lat="46.601943970" lon="6.366620064"><ele></ele><time>2013-8-24T3:24:43Z</time></trkpt>
<trkpt lat="46.602008343" lon="6.366941929"><ele></ele><time>2013-8-24T3:24:46Z</time></trkpt>
<trkpt lat="46.602137089" lon="6.367328167"><ele></ele><time>2013-8-24T3:24:49Z</time></trkpt>
<trkpt lat="46.602458954" lon="6.367907524"><ele></ele><time>2013-8-24T3:24:52Z</time></trkpt>
<trkpt lat="46.602566242" lon="6.368250847"><ele></ele><time>2013-8-24T3:24:55Z</time></trkpt>
<trkpt lat="46.602823734" lon="6.368851662"><ele></ele><time>2013-8-24T3:24:58Z</time></trkpt>
<trkpt lat="46.602866650" lon="6.368873119"><ele></ele><time>2013-8-24T3:25:1Z</time></trkpt>
<trkpt lat="46.603059769" lon="6.368701458"><ele></ele><time>2013-8-24T3:25:4Z</time></trkpt>
<trkpt lat="46.603317261" lon="6.368551254"><ele></ele><time>2013-8-24T3:25:7Z</time></trkpt>
<trkpt lat="46.603510380" lon="6.368744373"><ele></ele><time>2013-8-24T3:25:10Z</time></trkpt>
<trkpt lat="46.603617668" lon="6.368808746"><ele></ele><time>2013-8-24T3:25:13Z</time></trkpt>
<trkpt lat="46.603767872" lon="6.368508339"><ele></ele><time>2013-8-24T3:25:16Z</time></trkpt>
<trkpt lat="46.603767872" lon="6.368293762"><ele></ele><time>2013-8-24T3:25:19Z</time></trkpt>
<trkpt lat="46.603617668" lon="6.367843151"><ele></ele><time>2013-8-24T3:25:22Z</time></trkpt>
<trkpt lat="46.603703499" lon="6.367542744"><ele></ele><time>2013-8-24T3:25:25Z</time></trkpt>
<trkpt lat="46.603960991" lon="6.367371082"><ele></ele><time>2013-8-24T3:25:28Z</time></trkpt>
<trkpt lat="46.604325771" lon="6.367199421"><ele></ele><time>2013-8-24T3:25:31Z</time></trkpt>
<trkpt lat="46.604669094" lon="6.367113590"><ele></ele><time>2013-8-24T3:25:34Z</time></trkpt>
<trkpt lat="46.605441570" lon="6.367177963"><ele></ele><time>2013-8-24T3:25:37Z</time></trkpt>
<trkpt lat="46.605827808" lon="6.367006302"><ele></ele><time>2013-8-24T3:25:40Z</time></trkpt>
<trkpt lat="46.606407166" lon="6.367006302"><ele></ele><time>2013-8-24T3:25:43Z</time></trkpt>
<trkpt lat="46.607222557" lon="6.366791725"><ele></ele><time>2013-8-24T3:25:46Z</time></trkpt>
<trkpt lat="46.607608795" lon="6.366813183"><ele></ele><time>2013-8-24T3:25:49Z</time></trkpt>
<trkpt lat="46.607887745" lon="6.366899014"><ele></ele><time>2013-8-24T3:25:52Z</time></trkpt>
<trkpt lat="46.608231068" lon="6.366899014"><ele></ele><time>2013-8-24T3:25:55Z</time></trkpt>
<trkpt lat="46.608617306" lon="6.366813183"><ele></ele><time>2013-8-24T3:25:58Z</time></trkpt>
<trkpt lat="46.608831882" lon="6.366620064"><ele></ele><time>2013-8-24T3:26:1Z</time></trkpt>
<trkpt lat="46.608874798" lon="6.366555691"><ele></ele><time>2013-8-24T3:26:4Z</time></trkpt>
<trkpt lat="46.609261036" lon="6.366620064"><ele></ele><time>2013-8-24T3:26:7Z</time></trkpt>
<trkpt lat="46.609303951" lon="6.366555691"><ele></ele><time>2013-8-24T3:26:10Z</time></trkpt>
<trkpt lat="46.609089375" lon="6.365826130"><ele></ele><time>2013-8-24T3:26:13Z</time></trkpt>
<trkpt lat="46.608939171" lon="6.365504265"><ele></ele><time>2013-8-24T3:26:16Z</time></trkpt>
<trkpt lat="46.608574390" lon="6.365718842"><ele></ele><time>2013-8-24T3:26:19Z</time></trkpt>
<trkpt lat="46.608445644" lon="6.365461349"><ele></ele><time>2013-8-24T3:26:22Z</time></trkpt>
<trkpt lat="46.608381271" lon="6.364860535"><ele></ele><time>2013-8-24T3:26:25Z</time></trkpt>
<trkpt lat="46.608231068" lon="6.364538670"><ele></ele><time>2013-8-24T3:26:28Z</time></trkpt>
<trkpt lat="46.607844830" lon="6.364088058"><ele></ele><time>2013-8-24T3:26:31Z</time></trkpt>
<trkpt lat="46.607630253" lon="6.363787651"><ele></ele><time>2013-8-24T3:26:34Z</time></trkpt>
<trkpt lat="46.607480049" lon="6.363508701"><ele></ele><time>2013-8-24T3:26:37Z</time></trkpt>
<trkpt lat="46.606857777" lon="6.363251209"><ele></ele><time>2013-8-24T3:26:40Z</time></trkpt>
<trkpt lat="46.606771946" lon="6.363294125"><ele></ele><time>2013-8-24T3:26:43Z</time></trkpt>
<trkpt lat="46.606557369" lon="6.363015175"><ele></ele><time>2013-8-24T3:26:46Z</time></trkpt>
<trkpt lat="46.606342793" lon="6.362435818"><ele></ele><time>2013-8-24T3:26:49Z</time></trkpt>
<trkpt lat="46.606085300" lon="6.362285614"><ele></ele><time>2013-8-24T3:26:52Z</time></trkpt>
<trkpt lat="46.605420113" lon="6.362113953"><ele></ele><time>2013-8-24T3:26:55Z</time></trkpt>
<trkpt lat="46.605377197" lon="6.361856461"><ele></ele><time>2013-8-24T3:26:58Z</time></trkpt>
<trkpt lat="46.605505943" lon="6.361835003"><ele></ele><time>2013-8-24T3:27:1Z</time></trkpt>
<trkpt lat="46.605784893" lon="6.361942291"><ele></ele><time>2013-8-24T3:27:4Z</time></trkpt>
<trkpt lat="46.606042385" lon="6.361835003"><ele></ele><time>2013-8-24T3:27:7Z</time></trkpt>
<trkpt lat="46.607050896" lon="6.361663342"><ele></ele><time>2013-8-24T3:27:10Z</time></trkpt>
<trkpt lat="46.607351303" lon="6.361727715"><ele></ele><time>2013-8-24T3:27:13Z</time></trkpt>
<trkpt lat="46.608295441" lon="6.361770630"><ele></ele><time>2013-8-24T3:27:16Z</time></trkpt>
<trkpt lat="46.609153748" lon="6.362092495"><ele></ele><time>2013-8-24T3:27:19Z</time></trkpt>
<trkpt lat="46.609904766" lon="6.362242699"><ele></ele><time>2013-8-24T3:27:22Z</time></trkpt>
<trkpt lat="46.610484123" lon="6.362092495"><ele></ele><time>2013-8-24T3:27:25Z</time></trkpt>
<trkpt lat="46.610934734" lon="6.362178326"><ele></ele><time>2013-8-24T3:27:28Z</time></trkpt>
<trkpt lat="46.611149311" lon="6.362307072"><ele></ele><time>2013-8-24T3:27:31Z</time></trkpt>
<trkpt lat="46.611342430" lon="6.362307072"><ele></ele><time>2013-8-24T3:27:34Z</time></trkpt>
<trkpt lat="46.611299515" lon="6.362285614"><ele></ele><time>2013-8-24T3:27:37Z</time></trkpt>
<trkpt lat="46.611299515" lon="6.362221241"><ele></ele><time>2013-8-24T3:27:40Z</time></trkpt>
<trkpt lat="46.612179279" lon="6.362349987"><ele></ele><time>2013-8-24T3:27:43Z</time></trkpt>
<trkpt lat="46.612350941" lon="6.362435818"><ele></ele><time>2013-8-24T3:27:46Z</time></trkpt>
<trkpt lat="46.612501144" lon="6.362714767"><ele></ele><time>2013-8-24T3:27:49Z</time></trkpt>
<trkpt lat="46.612479687" lon="6.363208294"><ele></ele><time>2013-8-24T3:27:52Z</time></trkpt>
<trkpt lat="46.612393856" lon="6.363551617"><ele></ele><time>2013-8-24T3:27:55Z</time></trkpt>
<trkpt lat="46.612544060" lon="6.363573074"><ele></ele><time>2013-8-24T3:27:58Z</time></trkpt>
<trkpt lat="46.612780094" lon="6.363487244"><ele></ele><time>2013-8-24T3:28:1Z</time></trkpt>
<trkpt lat="46.613037586" lon="6.363573074"><ele></ele><time>2013-8-24T3:28:4Z</time></trkpt>
<trkpt lat="46.613123417" lon="6.363701820"><ele></ele><time>2013-8-24T3:28:7Z</time></trkpt>
<trkpt lat="46.613316536" lon="6.363744736"><ele></ele><time>2013-8-24T3:28:10Z</time></trkpt>
<trkpt lat="46.613509655" lon="6.363615990"><ele></ele><time>2013-8-24T3:28:13Z</time></trkpt>
<trkpt lat="46.613788605" lon="6.363615990"><ele></ele><time>2013-8-24T3:28:16Z</time></trkpt>
<trkpt lat="46.614024639" lon="6.363873482"><ele></ele><time>2013-8-24T3:28:19Z</time></trkpt>
<trkpt lat="46.614089012" lon="6.364216805"><ele></ele><time>2013-8-24T3:28:22Z</time></trkpt>
<trkpt lat="46.614196301" lon="6.364495754"><ele></ele><time>2013-8-24T3:28:25Z</time></trkpt>
<trkpt lat="46.614367962" lon="6.364624500"><ele></ele><time>2013-8-24T3:28:28Z</time></trkpt>
<trkpt lat="46.615011692" lon="6.364431381"><ele></ele><time>2013-8-24T3:28:31Z</time></trkpt>
<trkpt lat="46.615269184" lon="6.364409924"><ele></ele><time>2013-8-24T3:28:34Z</time></trkpt>
<trkpt lat="46.615998745" lon="6.364624500"><ele></ele><time>2013-8-24T3:28:37Z</time></trkpt>
<trkpt lat="46.616191864" lon="6.364517212"><ele></ele><time>2013-8-24T3:28:40Z</time></trkpt>
<trkpt lat="46.616191864" lon="6.364452839"><ele></ele><time>2013-8-24T3:28:43Z</time></trkpt>
<trkpt lat="46.616020203" lon="6.364216805"><ele></ele><time>2013-8-24T3:28:46Z</time></trkpt>
<trkpt lat="46.615569592" lon="6.363744736"><ele></ele><time>2013-8-24T3:28:49Z</time></trkpt>
<trkpt lat="46.614882946" lon="6.363294125"><ele></ele><time>2013-8-24T3:28:52Z</time></trkpt>
<trkpt lat="46.614475250" lon="6.362800598"><ele></ele><time>2013-8-24T3:28:55Z</time></trkpt>
<trkpt lat="46.614260674" lon="6.362671852"><ele></ele><time>2013-8-24T3:28:58Z</time></trkpt>
<trkpt lat="46.614024639" lon="6.362457275"><ele></ele><time>2013-8-24T3:29:1Z</time></trkpt>
<trkpt lat="46.613874435" lon="6.362071037"><ele></ele><time>2013-8-24T3:29:4Z</time></trkpt>
<trkpt lat="46.613831520" lon="6.361749172"><ele></ele><time>2013-8-24T3:29:7Z</time></trkpt>
<trkpt lat="46.613702774" lon="6.361448765"><ele></ele><time>2013-8-24T3:29:10Z</time></trkpt>
<trkpt lat="46.613574028" lon="6.361041069"><ele></ele><time>2013-8-24T3:29:13Z</time></trkpt>
<trkpt lat="46.613402367" lon="6.360805035"><ele></ele><time>2013-8-24T3:29:16Z</time></trkpt>
<trkpt lat="46.612715721" lon="6.360418797"><ele></ele><time>2013-8-24T3:29:19Z</time></trkpt>
<trkpt lat="46.612415314" lon="6.360332966"><ele></ele><time>2013-8-24T3:29:22Z</time></trkpt>
<trkpt lat="46.612458229" lon="6.360290051"><ele></ele><time>2013-8-24T3:29:25Z</time></trkpt>
<trkpt lat="46.613509655" lon="6.360354424"><ele></ele><time>2013-8-24T3:29:28Z</time></trkpt>
<trkpt lat="46.614303589" lon="6.360569000"><ele></ele><time>2013-8-24T3:29:31Z</time></trkpt>
<trkpt lat="46.615011692" lon="6.360547543"><ele></ele><time>2013-8-24T3:29:34Z</time></trkpt>
<trkpt lat="46.616449356" lon="6.360955238"><ele></ele><time>2013-8-24T3:29:37Z</time></trkpt>
<trkpt lat="46.616599560" lon="6.360847950"><ele></ele><time>2013-8-24T3:29:40Z</time></trkpt>
<trkpt lat="46.616835594" lon="6.360890865"><ele></ele><time>2013-8-24T3:29:43Z</time></trkpt>
<trkpt lat="46.617093086" lon="6.361041069"><ele></ele><time>2013-8-24T3:29:46Z</time></trkpt>
<trkpt lat="46.617758274" lon="6.361577511"><ele></ele><time>2013-8-24T3:29:49Z</time></trkpt>
<trkpt lat="46.618165970" lon="6.361706257"><ele></ele><time>2013-8-24T3:29:52Z</time></trkpt>
<trkpt lat="46.618702412" lon="6.361985207"><ele></ele><time>2013-8-24T3:29:55Z</time></trkpt>
<trkpt lat="46.619002819" lon="6.361663342"><ele></ele><time>2013-8-24T3:29:58Z</time></trkpt>
<trkpt lat="46.620140076" lon="6.361620426"><ele></ele><time>2013-8-24T3:30:1Z</time></trkpt>
<trkpt lat="46.620354652" lon="6.361534595"><ele></ele><time>2013-8-24T3:30:4Z</time></trkpt>
<trkpt lat="46.620912552" lon="6.361470222"><ele></ele><time>2013-8-24T3:30:7Z</time></trkpt>
<trkpt lat="46.621363163" lon="6.361341476"><ele></ele><time>2013-8-24T3:30:10Z</time></trkpt>
<trkpt lat="46.621642113" lon="6.361169815"><ele></ele><time>2013-8-24T3:30:13Z</time></trkpt>
<trkpt lat="46.622178555" lon="6.360933781"><ele></ele><time>2013-8-24T3:30:16Z</time></trkpt>
<trkpt lat="46.622414589" lon="6.360890865"><ele></ele><time>2013-8-24T3:30:19Z</time></trkpt>
<trkpt lat="46.622650623" lon="6.360783577"><ele></ele><time>2013-8-24T3:30:22Z</time></trkpt>
<trkpt lat="46.622843742" lon="6.360783577"><ele></ele><time>2013-8-24T3:30:25Z</time></trkpt>
<trkpt lat="46.623229980" lon="6.360611916"><ele></ele><time>2013-8-24T3:30:28Z</time></trkpt>
<trkpt lat="46.623401642" lon="6.360569000"><ele></ele><time>2013-8-24T3:30:31Z</time></trkpt>
<trkpt lat="46.623466015" lon="6.360590458"><ele></ele><time>2013-8-24T3:30:34Z</time></trkpt>
<trkpt lat="46.623852253" lon="6.360461712"><ele></ele><time>2013-8-24T3:30:37Z</time></trkpt>
<trkpt lat="46.624946594" lon="6.360268593"><ele></ele><time>2013-8-24T3:30:40Z</time></trkpt>
<trkpt lat="46.625483036" lon="6.360354424"><ele></ele><time>2013-8-24T3:30:43Z</time></trkpt>
<trkpt lat="46.625826359" lon="6.360354424"><ele></ele><time>2013-8-24T3:30:46Z</time></trkpt>
<trkpt lat="46.626126766" lon="6.360332966"><ele></ele><time>2013-8-24T3:30:49Z</time></trkpt>
<trkpt lat="46.626362801" lon="6.360225677"><ele></ele><time>2013-8-24T3:30:52Z</time></trkpt>
<trkpt lat="46.626577377" lon="6.360182762"><ele></ele><time>2013-8-24T3:30:55Z</time></trkpt>
<trkpt lat="46.626791954" lon="6.360247135"><ele></ele><time>2013-8-24T3:30:58Z</time></trkpt>
<trkpt lat="46.627049446" lon="6.360247135"><ele></ele><time>2013-8-24T3:31:1Z</time></trkpt>
<trkpt lat="46.627092361" lon="6.360268593"><ele></ele><time>2013-8-24T3:31:4Z</time></trkpt>
<trkpt lat="46.627156734" lon="6.360397339"><ele></ele><time>2013-8-24T3:31:7Z</time></trkpt>
<trkpt lat="46.627414227" lon="6.360375881"><ele></ele><time>2013-8-24T3:31:10Z</time></trkpt>
<trkpt lat="46.627993584" lon="6.360204220"><ele></ele><time>2013-8-24T3:31:13Z</time></trkpt>
<trkpt lat="46.628251076" lon="6.360032558"><ele></ele><time>2013-8-24T3:31:16Z</time></trkpt>
<trkpt lat="46.628572941" lon="6.359968185"><ele></ele><time>2013-8-24T3:31:19Z</time></trkpt>
<trkpt lat="46.628808975" lon="6.359946728"><ele></ele><time>2013-8-24T3:31:22Z</time></trkpt>
<trkpt lat="46.629152298" lon="6.360054016"><ele></ele><time>2013-8-24T3:31:25Z</time></trkpt>
<trkpt lat="46.629216671" lon="6.360011101"><ele></ele><time>2013-8-24T3:31:28Z</time></trkpt>
<trkpt lat="46.629860401" lon="6.360139847"><ele></ele><time>2013-8-24T3:31:31Z</time></trkpt>
<trkpt lat="46.631405354" lon="6.360011101"><ele></ele><time>2013-8-24T3:31:34Z</time></trkpt>
<trkpt lat="46.631898880" lon="6.359882355"><ele></ele><time>2013-8-24T3:31:37Z</time></trkpt>
<trkpt lat="46.632091999" lon="6.359903812"><ele></ele><time>2013-8-24T3:31:40Z</time></trkpt>
<trkpt lat="46.632456779" lon="6.359732151"><ele></ele><time>2013-8-24T3:31:43Z</time></trkpt>
<trkpt lat="46.633572578" lon="6.358723640"><ele></ele><time>2013-8-24T3:31:46Z</time></trkpt>
<trkpt lat="46.634237766" lon="6.358423233"><ele></ele><time>2013-8-24T3:31:49Z</time></trkpt>
<trkpt lat="46.634945869" lon="6.358230114"><ele></ele><time>2013-8-24T3:31:52Z</time></trkpt>
<trkpt lat="46.635267735" lon="6.358079910"><ele></ele><time>2013-8-24T3:31:55Z</time></trkpt>
<trkpt lat="46.635696888" lon="6.358294487"><ele></ele><time>2013-8-24T3:31:58Z</time></trkpt>
<trkpt lat="46.636319160" lon="6.358444691"><ele></ele><time>2013-8-24T3:32:1Z</time></trkpt>
<trkpt lat="46.637113094" lon="6.358380318"><ele></ele><time>2013-8-24T3:32:4Z</time></trkpt>
<trkpt lat="46.637241840" lon="6.358251572"><ele></ele><time>2013-8-24T3:32:7Z</time></trkpt>
<trkpt lat="46.637370586" lon="6.357951164"><ele></ele><time>2013-8-24T3:32:10Z</time></trkpt>
<trkpt lat="46.637606621" lon="6.357543468"><ele></ele><time>2013-8-24T3:32:13Z</time></trkpt>
<trkpt lat="46.637799740" lon="6.356835365"><ele></ele><time>2013-8-24T3:32:16Z</time></trkpt>
<trkpt lat="46.637756824" lon="6.356685162"><ele></ele><time>2013-8-24T3:32:19Z</time></trkpt>
<trkpt lat="46.637284756" lon="6.356427670"><ele></ele><time>2013-8-24T3:32:22Z</time></trkpt>
<trkpt lat="46.636962891" lon="6.356127262"><ele></ele><time>2013-8-24T3:32:25Z</time></trkpt>
<trkpt lat="46.636576653" lon="6.355934143"><ele></ele><time>2013-8-24T3:32:28Z</time></trkpt>
<trkpt lat="46.636233330" lon="6.355633736"><ele></ele><time>2013-8-24T3:32:31Z</time></trkpt>
<trkpt lat="46.636040211" lon="6.355504990"><ele></ele><time>2013-8-24T3:32:34Z</time></trkpt>
<trkpt lat="46.635868549" lon="6.355440617"><ele></ele><time>2013-8-24T3:32:37Z</time></trkpt>
<trkpt lat="46.635439396" lon="6.355140209"><ele></ele><time>2013-8-24T3:32:40Z</time></trkpt>
<trkpt lat="46.634860039" lon="6.354839802"><ele></ele><time>2013-8-24T3:32:43Z</time></trkpt>
<trkpt lat="46.634237766" lon="6.354689598"><ele></ele><time>2013-8-24T3:32:46Z</time></trkpt>
<trkpt lat="46.634087563" lon="6.354539394"><ele></ele><time>2013-8-24T3:32:49Z</time></trkpt>
<trkpt lat="46.633958817" lon="6.354367733"><ele></ele><time>2013-8-24T3:32:52Z</time></trkpt>
<trkpt lat="46.633701324" lon="6.353917122"><ele></ele><time>2013-8-24T3:32:55Z</time></trkpt>
<trkpt lat="46.633336544" lon="6.353445053"><ele></ele><time>2013-8-24T3:32:58Z</time></trkpt>
<trkpt lat="46.633143425" lon="6.353251934"><ele></ele><time>2013-8-24T3:33:1Z</time></trkpt>
<trkpt lat="46.632585526" lon="6.352415085"><ele></ele><time>2013-8-24T3:33:4Z</time></trkpt>
<trkpt lat="46.632328033" lon="6.352114677"><ele></ele><time>2013-8-24T3:33:7Z</time></trkpt>
<trkpt lat="46.631941795" lon="6.351470947"><ele></ele><time>2013-8-24T3:33:10Z</time></trkpt>
<trkpt lat="46.631920338" lon="6.351470947"><ele></ele><time>2013-8-24T3:33:13Z</time></trkpt>
<trkpt lat="46.631727219" lon="6.351041794"><ele></ele><time>2013-8-24T3:33:16Z</time></trkpt>
<trkpt lat="46.631534100" lon="6.350398064"><ele></ele><time>2013-8-24T3:33:19Z</time></trkpt>
<trkpt lat="46.631362438" lon="6.350119114"><ele></ele><time>2013-8-24T3:33:22Z</time></trkpt>
<trkpt lat="46.631169319" lon="6.349968910"><ele></ele><time>2013-8-24T3:33:25Z</time></trkpt>
<trkpt lat="46.630868912" lon="6.349883080"><ele></ele><time>2013-8-24T3:33:28Z</time></trkpt>
<trkpt lat="46.630225182" lon="6.350076199"><ele></ele><time>2013-8-24T3:33:31Z</time></trkpt>
<trkpt lat="46.629602909" lon="6.350376606"><ele></ele><time>2013-8-24T3:33:34Z</time></trkpt>
<trkpt lat="46.629345417" lon="6.350612640"><ele></ele><time>2013-8-24T3:33:37Z</time></trkpt>
<trkpt lat="46.628744602" lon="6.350526810"><ele></ele><time>2013-8-24T3:33:40Z</time></trkpt>
<trkpt lat="46.628251076" lon="6.350569725"><ele></ele><time>2013-8-24T3:33:43Z</time></trkpt>
<trkpt lat="46.627757549" lon="6.350741386"><ele></ele><time>2013-8-24T3:33:46Z</time></trkpt>
<trkpt lat="46.627478600" lon="6.350891590"><ele></ele><time>2013-8-24T3:33:49Z</time></trkpt>
<trkpt lat="46.627457142" lon="6.351020336"><ele></ele><time>2013-8-24T3:33:52Z</time></trkpt>
<trkpt lat="46.627929211" lon="6.351363659"><ele></ele><time>2013-8-24T3:33:55Z</time></trkpt>
<trkpt lat="46.628100872" lon="6.351535320"><ele></ele><time>2013-8-24T3:33:58Z</time></trkpt>
<trkpt lat="46.628379822" lon="6.351728439"><ele></ele><time>2013-8-24T3:34:1Z</time></trkpt>
<trkpt lat="46.628980637" lon="6.352028847"><ele></ele><time>2013-8-24T3:34:4Z</time></trkpt>
<trkpt lat="46.629152298" lon="6.352157593"><ele></ele><time>2013-8-24T3:34:7Z</time></trkpt>
<trkpt lat="46.629152298" lon="6.352372169"><ele></ele><time>2013-8-24T3:34:10Z</time></trkpt>
<trkpt lat="46.628808975" lon="6.352651119"><ele></ele><time>2013-8-24T3:34:13Z</time></trkpt>
<trkpt lat="46.627993584" lon="6.352994442"><ele></ele><time>2013-8-24T3:34:16Z</time></trkpt>
<trkpt lat="46.627628803" lon="6.353209019"><ele></ele><time>2013-8-24T3:34:19Z</time></trkpt>
<trkpt lat="46.627478600" lon="6.353337765"><ele></ele><time>2013-8-24T3:34:22Z</time></trkpt>
<trkpt lat="46.627221107" lon="6.353681087"><ele></ele><time>2013-8-24T3:34:25Z</time></trkpt>
<trkpt lat="46.627221107" lon="6.353809834"><ele></ele><time>2013-8-24T3:34:28Z</time></trkpt>
<trkpt lat="46.627242565" lon="6.353766918"><ele></ele><time>2013-8-24T3:34:31Z</time></trkpt>
<trkpt lat="46.627199650" lon="6.353766918"><ele></ele><time>2013-8-24T3:34:34Z</time></trkpt>
<trkpt lat="46.627199650" lon="6.353702545"><ele></ele><time>2013-8-24T3:34:37Z</time></trkpt>
<trkpt lat="46.627264023" lon="6.353573799"><ele></ele><time>2013-8-24T3:34:40Z</time></trkpt>
<trkpt lat="46.627435684" lon="6.353359222"><ele></ele><time>2013-8-24T3:34:43Z</time></trkpt>
<trkpt lat="46.627693176" lon="6.353123188"><ele></ele><time>2013-8-24T3:34:46Z</time></trkpt>
<trkpt lat="46.629023552" lon="6.352479458"><ele></ele><time>2013-8-24T3:34:49Z</time></trkpt>
<trkpt lat="46.629152298" lon="6.352114677"><ele></ele><time>2013-8-24T3:34:52Z</time></trkpt>
<trkpt lat="46.628208160" lon="6.351578236"><ele></ele><time>2013-8-24T3:34:55Z</time></trkpt>
<trkpt lat="46.627478600" lon="6.351020336"><ele></ele><time>2013-8-24T3:34:58Z</time></trkpt>
<trkpt lat="46.627500057" lon="6.350784302"><ele></ele><time>2013-8-24T3:35:1Z</time></trkpt>
<trkpt lat="46.628186703" lon="6.350526810"><ele></ele><time>2013-8-24T3:35:4Z</time></trkpt>
<trkpt lat="46.629152298" lon="6.350548267"><ele></ele><time>2013-8-24T3:35:7Z</time></trkpt>
<trkpt lat="46.629538536" lon="6.350419521"><ele></ele><time>2013-8-24T3:35:10Z</time></trkpt>
<trkpt lat="46.630375385" lon="6.349990368"><ele></ele><time>2013-8-24T3:35:13Z</time></trkpt>
<trkpt lat="46.630632877" lon="6.349904537"><ele></ele><time>2013-8-24T3:35:16Z</time></trkpt>
<trkpt lat="46.630718708" lon="6.349689960"><ele></ele><time>2013-8-24T3:35:19Z</time></trkpt>
<trkpt lat="46.630504131" lon="6.349475384"><ele></ele><time>2013-8-24T3:35:22Z</time></trkpt>
<trkpt lat="46.630332470" lon="6.349003315"><ele></ele><time>2013-8-24T3:35:25Z</time></trkpt>
<trkpt lat="46.630418301" lon="6.348810196"><ele></ele><time>2013-8-24T3:35:28Z</time></trkpt>
<trkpt lat="46.630675793" lon="6.348745823"><ele></ele><time>2013-8-24T3:35:31Z</time></trkpt>
<trkpt lat="46.631019115" lon="6.348810196"><ele></ele><time>2013-8-24T3:35:34Z</time></trkpt>
<trkpt lat="46.631834507" lon="6.349303722"><ele></ele><time>2013-8-24T3:35:37Z</time></trkpt>
<trkpt lat="46.632006168" lon="6.349732876"><ele></ele><time>2013-8-24T3:35:40Z</time></trkpt>
<trkpt lat="46.632392406" lon="6.350419521"><ele></ele><time>2013-8-24T3:35:43Z</time></trkpt>
<trkpt lat="46.632907391" lon="6.350719929"><ele></ele><time>2013-8-24T3:35:46Z</time></trkpt>
<trkpt lat="46.633508205" lon="6.350977421"><ele></ele><time>2013-8-24T3:35:49Z</time></trkpt>
<trkpt lat="46.634237766" lon="6.351792812"><ele></ele><time>2013-8-24T3:35:52Z</time></trkpt>
<trkpt lat="46.634967327" lon="6.352715492"><ele></ele><time>2013-8-24T3:35:55Z</time></trkpt>
<trkpt lat="46.635761261" lon="6.353123188"><ele></ele><time>2013-8-24T3:35:58Z</time></trkpt>
<trkpt lat="46.636061668" lon="6.352951527"><ele></ele><time>2013-8-24T3:36:1Z</time></trkpt>
<trkpt lat="46.636297703" lon="6.352565289"><ele></ele><time>2013-8-24T3:36:4Z</time></trkpt>
<trkpt lat="46.637091637" lon="6.352458000"><ele></ele><time>2013-8-24T3:36:7Z</time></trkpt>
<trkpt lat="46.637499332" lon="6.352479458"><ele></ele><time>2013-8-24T3:36:10Z</time></trkpt>
<trkpt lat="46.638228893" lon="6.352930069"><ele></ele><time>2013-8-24T3:36:13Z</time></trkpt>
<trkpt lat="46.639151573" lon="6.353187561"><ele></ele><time>2013-8-24T3:36:16Z</time></trkpt>
<trkpt lat="46.639709473" lon="6.353745461"><ele></ele><time>2013-8-24T3:36:19Z</time></trkpt>
<trkpt lat="46.639945507" lon="6.354238987"><ele></ele><time>2013-8-24T3:36:22Z</time></trkpt>
<trkpt lat="46.640160084" lon="6.354539394"><ele></ele><time>2013-8-24T3:36:25Z</time></trkpt>
<trkpt lat="46.640675068" lon="6.354646683"><ele></ele><time>2013-8-24T3:36:28Z</time></trkpt>
<trkpt lat="46.641554832" lon="6.354925632"><ele></ele><time>2013-8-24T3:36:31Z</time></trkpt>
<trkpt lat="46.641983986" lon="6.354818344"><ele></ele><time>2013-8-24T3:36:34Z</time></trkpt>
<trkpt lat="46.643207073" lon="6.354882717"><ele></ele><time>2013-8-24T3:36:37Z</time></trkpt>
<trkpt lat="46.644709110" lon="6.355912685"><ele></ele><time>2013-8-24T3:36:40Z</time></trkpt>
<trkpt lat="46.645395756" lon="6.356298923"><ele></ele><time>2013-8-24T3:36:43Z</time></trkpt>
<trkpt lat="46.645696163" lon="6.356706619"><ele></ele><time>2013-8-24T3:36:46Z</time></trkpt>
<trkpt lat="46.646232605" lon="6.357007027"><ele></ele><time>2013-8-24T3:36:49Z</time></trkpt>
<trkpt lat="46.646618843" lon="6.356964111"><ele></ele><time>2013-8-24T3:36:52Z</time></trkpt>
<trkpt lat="46.646962166" lon="6.357243061"><ele></ele><time>2013-8-24T3:36:55Z</time></trkpt>
<trkpt lat="46.647047997" lon="6.357500553"><ele></ele><time>2013-8-24T3:36:58Z</time></trkpt>
<trkpt lat="46.647069454" lon="6.357672215"><ele></ele><time>2013-8-24T3:37:1Z</time></trkpt>
<trkpt lat="46.647005081" lon="6.357736588"><ele></ele><time>2013-8-24T3:37:4Z</time></trkpt>
<trkpt lat="46.646747589" lon="6.357607841"><ele></ele><time>2013-8-24T3:37:7Z</time></trkpt>
<trkpt lat="46.645932198" lon="6.358144283"><ele></ele><time>2013-8-24T3:37:10Z</time></trkpt>
<trkpt lat="46.645460129" lon="6.358358860"><ele></ele><time>2013-8-24T3:37:13Z</time></trkpt>
<trkpt lat="46.644601822" lon="6.358659267"><ele></ele><time>2013-8-24T3:37:16Z</time></trkpt>
<trkpt lat="46.644065380" lon="6.358916759"><ele></ele><time>2013-8-24T3:37:19Z</time></trkpt>
<trkpt lat="46.643142700" lon="6.358938217"><ele></ele><time>2013-8-24T3:37:22Z</time></trkpt>
<trkpt lat="46.642091274" lon="6.359195709"><ele></ele><time>2013-8-24T3:37:25Z</time></trkpt>
<trkpt lat="46.641576290" lon="6.359088421"><ele></ele><time>2013-8-24T3:37:28Z</time></trkpt>
<trkpt lat="46.641018391" lon="6.358637810"><ele></ele><time>2013-8-24T3:37:31Z</time></trkpt>
<trkpt lat="46.640331745" lon="6.358315945"><ele></ele><time>2013-8-24T3:37:34Z</time></trkpt>
<trkpt lat="46.639945507" lon="6.358745098"><ele></ele><time>2013-8-24T3:37:37Z</time></trkpt>
<trkpt lat="46.638872623" lon="6.360461712"><ele></ele><time>2013-8-24T3:37:40Z</time></trkpt>
<trkpt lat="46.638121605" lon="6.361405849"><ele></ele><time>2013-8-24T3:37:43Z</time></trkpt>
<trkpt lat="46.637885571" lon="6.362071037"><ele></ele><time>2013-8-24T3:37:46Z</time></trkpt>
<trkpt lat="46.637821198" lon="6.362178326"><ele></ele><time>2013-8-24T3:37:49Z</time></trkpt>
<trkpt lat="46.636598110" lon="6.363251209"><ele></ele><time>2013-8-24T3:37:52Z</time></trkpt>
<trkpt lat="46.635932922" lon="6.364259720"><ele></ele><time>2013-8-24T3:37:55Z</time></trkpt>
<trkpt lat="46.635632515" lon="6.364860535"><ele></ele><time>2013-8-24T3:37:58Z</time></trkpt>
<trkpt lat="46.635653973" lon="6.365268230"><ele></ele><time>2013-8-24T3:38:1Z</time></trkpt>
<trkpt lat="46.635589600" lon="6.365826130"><ele></ele><time>2013-8-24T3:38:4Z</time></trkpt>
<trkpt lat="46.634988785" lon="6.366705894"><ele></ele><time>2013-8-24T3:38:7Z</time></trkpt>
<trkpt lat="46.634430885" lon="6.367456913"><ele></ele><time>2013-8-24T3:38:10Z</time></trkpt>
<trkpt lat="46.634280682" lon="6.367564201"><ele></ele><time>2013-8-24T3:38:13Z</time></trkpt>
<trkpt lat="46.634001732" lon="6.367607117"><ele></ele><time>2013-8-24T3:38:16Z</time></trkpt>
<trkpt lat="46.633443832" lon="6.367199421"><ele></ele><time>2013-8-24T3:38:19Z</time></trkpt>
<trkpt lat="46.633143425" lon="6.366920471"><ele></ele><time>2013-8-24T3:38:22Z</time></trkpt>
<trkpt lat="46.632800102" lon="6.366877556"><ele></ele><time>2013-8-24T3:38:25Z</time></trkpt>
<trkpt lat="46.632242203" lon="6.367092133"><ele></ele><time>2013-8-24T3:38:28Z</time></trkpt>
<trkpt lat="46.631791592" lon="6.367135048"><ele></ele><time>2013-8-24T3:38:31Z</time></trkpt>
<trkpt lat="46.631040573" lon="6.366984844"><ele></ele><time>2013-8-24T3:38:34Z</time></trkpt>
<trkpt lat="46.630783081" lon="6.367049217"><ele></ele><time>2013-8-24T3:38:37Z</time></trkpt>
<trkpt lat="46.630160809" lon="6.367671490"><ele></ele><time>2013-8-24T3:38:40Z</time></trkpt>
<trkpt lat="46.630096436" lon="6.367757320"><ele></ele><time>2013-8-24T3:38:43Z</time></trkpt>
<trkpt lat="46.629838943" lon="6.368722916"><ele></ele><time>2013-8-24T3:38:46Z</time></trkpt>
<trkpt lat="46.629259586" lon="6.370053291"><ele></ele><time>2013-8-24T3:38:49Z</time></trkpt>
<trkpt lat="46.628959179" lon="6.371169090"><ele></ele><time>2013-8-24T3:38:52Z</time></trkpt>
<trkpt lat="46.628894806" lon="6.371726990"><ele></ele><time>2013-8-24T3:38:55Z</time></trkpt>
<trkpt lat="46.628766060" lon="6.372070313"><ele></ele><time>2013-8-24T3:38:58Z</time></trkpt>
<trkpt lat="46.628336906" lon="6.372392178"><ele></ele><time>2013-8-24T3:39:1Z</time></trkpt>
<trkpt lat="46.627757549" lon="6.372456551"><ele></ele><time>2013-8-24T3:39:4Z</time></trkpt>
<trkpt lat="46.627349854" lon="6.371490955"><ele></ele><time>2013-8-24T3:39:7Z</time></trkpt>
<trkpt lat="46.626877785" lon="6.370482445"><ele></ele><time>2013-8-24T3:39:10Z</time></trkpt>
<trkpt lat="46.626298428" lon="6.370031834"><ele></ele><time>2013-8-24T3:39:13Z</time></trkpt>
<trkpt lat="46.625053883" lon="6.369559765"><ele></ele><time>2013-8-24T3:39:16Z</time></trkpt>
<trkpt lat="46.624131203" lon="6.369280815"><ele></ele><time>2013-8-24T3:39:19Z</time></trkpt>
<trkpt lat="46.623551846" lon="6.369559765"><ele></ele><time>2013-8-24T3:39:22Z</time></trkpt>
<trkpt lat="46.623165607" lon="6.369688511"><ele></ele><time>2013-8-24T3:39:25Z</time></trkpt>
<trkpt lat="46.621448994" lon="6.369667053"><ele></ele><time>2013-8-24T3:39:28Z</time></trkpt>
<trkpt lat="46.620140076" lon="6.369302273"><ele></ele><time>2013-8-24T3:39:31Z</time></trkpt>
<trkpt lat="46.619753838" lon="6.369237900"><ele></ele><time>2013-8-24T3:39:34Z</time></trkpt>
<trkpt lat="46.619517803" lon="6.369280815"><ele></ele><time>2013-8-24T3:39:37Z</time></trkpt>
<trkpt lat="46.619260311" lon="6.369516850"><ele></ele><time>2013-8-24T3:39:40Z</time></trkpt>
<trkpt lat="46.618337631" lon="6.369967461"><ele></ele><time>2013-8-24T3:39:43Z</time></trkpt>
<trkpt lat="46.618165970" lon="6.369988918"><ele></ele><time>2013-8-24T3:39:46Z</time></trkpt>
<trkpt lat="46.617779732" lon="6.369817257"><ele></ele><time>2013-8-24T3:39:49Z</time></trkpt>
<trkpt lat="46.617715359" lon="6.370246410"><ele></ele><time>2013-8-24T3:39:52Z</time></trkpt>
<trkpt lat="46.617865562" lon="6.370697021"><ele></ele><time>2013-8-24T3:39:55Z</time></trkpt>
<trkpt lat="46.618294716" lon="6.371212006"><ele></ele><time>2013-8-24T3:39:58Z</time></trkpt>
<trkpt lat="46.618487835" lon="6.371340752"><ele></ele><time>2013-8-24T3:40:1Z</time></trkpt>
<trkpt lat="46.618788242" lon="6.371448040"><ele></ele><time>2013-8-24T3:40:4Z</time></trkpt>
<trkpt lat="46.619174480" lon="6.371684074"><ele></ele><time>2013-8-24T3:40:7Z</time></trkpt>
<trkpt lat="46.619818211" lon="6.372799873"><ele></ele><time>2013-8-24T3:40:10Z</time></trkpt>
<trkpt lat="46.620097160" lon="6.373100281"><ele></ele><time>2013-8-24T3:40:13Z</time></trkpt>
<trkpt lat="46.620204449" lon="6.373314857"><ele></ele><time>2013-8-24T3:40:16Z</time></trkpt>
<trkpt lat="46.620118618" lon="6.373336315"><ele></ele><time>2013-8-24T3:40:19Z</time></trkpt>
<trkpt lat="46.619389057" lon="6.372864246"><ele></ele><time>2013-8-24T3:40:22Z</time></trkpt>
<trkpt lat="46.618766785" lon="6.372799873"><ele></ele><time>2013-8-24T3:40:25Z</time></trkpt>
<trkpt lat="46.618638039" lon="6.373293400"><ele></ele><time>2013-8-24T3:40:28Z</time></trkpt>
<trkpt lat="46.618208885" lon="6.373143196"><ele></ele><time>2013-8-24T3:40:31Z</time></trkpt>
<trkpt lat="46.617929935" lon="6.372842789"><ele></ele><time>2013-8-24T3:40:34Z</time></trkpt>
<trkpt lat="46.618080139" lon="6.373250484"><ele></ele><time>2013-8-24T3:40:37Z</time></trkpt>
<trkpt lat="46.618444920" lon="6.373872757"><ele></ele><time>2013-8-24T3:40:40Z</time></trkpt>
<trkpt lat="46.618809700" lon="6.374108791"><ele></ele><time>2013-8-24T3:40:43Z</time></trkpt>
<trkpt lat="46.619217396" lon="6.374988556"><ele></ele><time>2013-8-24T3:40:46Z</time></trkpt>
<trkpt lat="46.619195938" lon="6.375138760"><ele></ele><time>2013-8-24T3:40:49Z</time></trkpt>
<trkpt lat="46.618916988" lon="6.375160217"><ele></ele><time>2013-8-24T3:40:52Z</time></trkpt>
<trkpt lat="46.617929935" lon="6.374430656"><ele></ele><time>2013-8-24T3:40:55Z</time></trkpt>
<trkpt lat="46.617157459" lon="6.375310421"><ele></ele><time>2013-8-24T3:40:58Z</time></trkpt>
<trkpt lat="46.616835594" lon="6.374087334"><ele></ele><time>2013-8-24T3:41:1Z</time></trkpt>
<trkpt lat="46.615526676" lon="6.373507977"><ele></ele><time>2013-8-24T3:41:4Z</time></trkpt>
<trkpt lat="46.614947319" lon="6.373765469"><ele></ele><time>2013-8-24T3:41:7Z</time></trkpt>
<trkpt lat="46.614282131" lon="6.374301910"><ele></ele><time>2013-8-24T3:41:10Z</time></trkpt>
<trkpt lat="46.613852978" lon="6.374430656"><ele></ele><time>2013-8-24T3:41:13Z</time></trkpt>
<trkpt lat="46.612372398" lon="6.374022961"><ele></ele><time>2013-8-24T3:41:16Z</time></trkpt>
<trkpt lat="46.611986160" lon="6.374108791"><ele></ele><time>2013-8-24T3:41:19Z</time></trkpt>
<trkpt lat="46.611278057" lon="6.374580860"><ele></ele><time>2013-8-24T3:41:22Z</time></trkpt>
<trkpt lat="46.610677242" lon="6.374645233"><ele></ele><time>2013-8-24T3:41:25Z</time></trkpt>
<trkpt lat="46.610462666" lon="6.374731064"><ele></ele><time>2013-8-24T3:41:28Z</time></trkpt>
<trkpt lat="46.610269547" lon="6.374902725"><ele></ele><time>2013-8-24T3:41:31Z</time></trkpt>
<trkpt lat="46.607737541" lon="6.376404762"><ele></ele><time>2013-8-24T3:41:34Z</time></trkpt>
<trkpt lat="46.607329845" lon="6.376833916"><ele></ele><time>2013-8-24T3:41:37Z</time></trkpt>
<trkpt lat="46.607201099" lon="6.376876831"><ele></ele><time>2013-8-24T3:41:40Z</time></trkpt>
<trkpt lat="46.606986523" lon="6.376726627"><ele></ele><time>2013-8-24T3:41:43Z</time></trkpt>
<trkpt lat="46.606364250" lon="6.376533508"><ele></ele><time>2013-8-24T3:41:46Z</time></trkpt>
<trkpt lat="46.605076790" lon="6.375739574"><ele></ele><time>2013-8-24T3:41:49Z</time></trkpt>
<trkpt lat="46.603510380" lon="6.374495029"><ele></ele><time>2013-8-24T3:41:52Z</time></trkpt>
<trkpt lat="46.602308750" lon="6.374495029"><ele></ele><time>2013-8-24T3:41:55Z</time></trkpt>
<trkpt lat="46.602094173" lon="6.374344826"><ele></ele><time>2013-8-24T3:41:58Z</time></trkpt>
<trkpt lat="46.601943970" lon="6.374452114"><ele></ele><time>2013-8-24T3:42:1Z</time></trkpt>
<trkpt lat="46.601750851" lon="6.374967098"><ele></ele><time>2013-8-24T3:42:4Z</time></trkpt>
<trkpt lat="46.601622105" lon="6.376512051"><ele></ele><time>2013-8-24T3:42:7Z</time></trkpt>
<trkpt lat="46.601471901" lon="6.376898289"><ele></ele><time>2013-8-24T3:42:10Z</time></trkpt>
<trkpt lat="46.601021290" lon="6.377134323"><ele></ele><time>2013-8-24T3:42:13Z</time></trkpt>
<trkpt lat="46.600699425" lon="6.376941204"><ele></ele><time>2013-8-24T3:42:16Z</time></trkpt>
<trkpt lat="46.600484848" lon="6.376705170"><ele></ele><time>2013-8-24T3:42:19Z</time></trkpt>
<trkpt lat="46.600077152" lon="6.376512051"><ele></ele><time>2013-8-24T3:42:22Z</time></trkpt>
<trkpt lat="46.599841118" lon="6.376147270"><ele></ele><time>2013-8-24T3:42:25Z</time></trkpt>
<trkpt lat="46.599776745" lon="6.375331879"><ele></ele><time>2013-8-24T3:42:28Z</time></trkpt>
</trkseg></trk></gpx>